Time;durP1;ratioP1;P1;durP2;ratioP2;P2;SDS_P1;SDS_P2;PMS_P1;PMS_P2;Temp;Humidity;BMP_temperature;BMP_pressure;BME280_temperature;BME280_humidity;BME280_pressure;Samples;Min_cycle;Max_cycle;Signal;HPM_P1;HPM_P2
2021/08/30 00:01:50;;;;;;;15.90;6.55;;;16.00;99.90;;;;;;5082170;28;20075;-74
2021/08/30 00:04:16;;;;;;;16.77;7.20;;;16.00;99.90;;;;;;5067066;28;20029;-73
2021/08/30 00:06:42;;;;;;;19.85;6.55;;;15.90;99.90;;;;;;5066840;28;20786;-75
2021/08/30 00:09:11;;;;;;;21.40;7.90;;;16.00;99.90;;;;;;5066695;28;20033;-75
2021/08/30 00:11:37;;;;;;;11.85;7.15;;;15.90;99.90;;;;;;5065288;28;20025;-73
2021/08/30 00:14:04;;;;;;;12.27;6.60;;;16.00;99.90;;;;;;5065261;28;20100;-74
2021/08/30 00:16:30;;;;;;;15.43;7.60;;;16.00;99.90;;;;;;5066399;28;20473;-74
2021/08/30 00:18:56;;;;;;;21.52;7.75;;;16.00;99.90;;;;;;5081469;28;20067;-75
2021/08/30 00:21:22;;;;;;;18.30;7.00;;;16.00;99.90;;;;;;5066673;28;20028;-74
2021/08/30 00:23:48;;;;;;;14.95;7.38;;;16.00;99.90;;;;;;5066659;28;20047;-77
2021/08/30 00:26:13;;;;;;;19.48;7.07;;;15.90;99.90;;;;;;5066359;28;20078;-75
2021/08/30 00:28:40;;;;;;;18.58;7.45;;;15.90;99.90;;;;;;5066214;28;20717;-77
2021/08/30 00:31:06;;;;;;;12.70;6.60;;;16.00;99.90;;;;;;5066307;28;20055;-76
2021/08/30 00:33:32;;;;;;;19.55;7.10;;;15.90;99.90;;;;;;5066209;28;20044;-76
2021/08/30 00:35:57;;;;;;;15.20;6.32;;;15.90;99.90;;;;;;5066182;28;20028;-75
2021/08/30 00:38:23;;;;;;;13.32;6.72;;;15.90;99.90;;;;;;5066260;28;20076;-77
2021/08/30 00:40:48;;;;;;;15.43;6.93;;;15.90;99.90;;;;;;5066681;28;20354;-74
2021/08/30 00:43:14;;;;;;;12.15;6.60;;;15.90;99.90;;;;;;5065635;28;20025;-75
2021/08/30 00:45:40;;;;;;;14.15;7.53;;;16.00;99.90;;;;;;5065842;28;20555;-75
2021/08/30 00:48:06;;;;;;;13.88;7.38;;;15.90;99.90;;;;;;5065781;28;20083;-73
2021/08/30 00:50:32;;;;;;;15.65;7.53;;;15.80;99.90;;;;;;5065950;28;20037;-76
2021/08/30 00:52:58;;;;;;;17.38;7.25;;;15.90;99.90;;;;;;5065926;28;20060;-76
2021/08/30 00:55:24;;;;;;;25.38;7.32;;;15.90;99.90;;;;;;5081640;28;20025;-75
2021/08/30 00:57:51;;;;;;;12.63;6.78;;;15.90;99.90;;;;;;5064555;28;20033;-75
2021/08/30 01:00:17;;;;;;;17.77;7.28;;;15.80;99.90;;;;;;5065367;28;20112;-73
2021/08/30 01:02:43;;;;;;;11.85;6.80;;;15.70;99.90;;;;;;5065638;28;20055;-73
2021/08/30 01:05:14;;;;;;;19.35;7.40;;;15.70;99.90;;;;;;5065573;28;20025;-74
2021/08/30 01:07:45;;;;;;;16.77;7.78;;;15.80;99.90;;;;;;5080915;28;20037;-74
2021/08/30 01:10:19;;;;;;;15.13;7.03;;;15.60;99.90;;;;;;5065628;28;20807;-75
2021/08/30 01:12:57;;;;;;;13.90;7.57;;;15.70;99.90;;;;;;5066011;28;20024;-74
2021/08/30 01:15:40;;;;;;;19.38;8.98;;;15.80;99.90;;;;;;5065489;28;20040;-76
2021/08/30 01:18:28;;;;;;;19.13;8.27;;;15.70;99.90;;;;;;5065101;28;20132;-77
2021/08/30 01:21:15;;;;;;;17.08;8.60;;;15.70;99.90;;;;;;5065546;28;20036;-74
2021/08/30 01:23:44;;;;;;;14.85;7.68;;;15.60;99.90;;;;;;5065119;28;20065;-75
2021/08/30 01:26:14;;;;;;;13.68;8.07;;;15.70;99.90;;;;;;5080422;28;20032;-75
2021/08/30 01:28:45;;;;;;;14.02;7.00;;;15.60;99.90;;;;;;5065217;28;20037;-77
2021/08/30 01:31:21;;;;;;;13.52;7.63;;;15.50;99.90;;;;;;5065322;28;20389;-74
2021/08/30 01:33:50;;;;;;;18.90;8.68;;;15.60;99.90;;;;;;5065461;28;20110;-76
2021/08/30 01:36:18;;;;;;;16.80;7.70;;;15.50;99.90;;;;;;5065204;28;20032;-76
2021/08/30 01:38:45;;;;;;;18.10;7.72;;;15.40;99.90;;;;;;5080720;28;20041;-75
2021/08/30 01:41:14;;;;;;;27.73;8.23;;;15.40;99.90;;;;;;5063668;28;20032;-76
2021/08/30 01:43:41;;;;;;;18.48;8.55;;;15.40;99.90;;;;;;5064935;28;20021;-74
2021/08/30 01:46:07;;;;;;;15.90;8.20;;;15.40;99.90;;;;;;5065149;28;20025;-74
2021/08/30 01:48:33;;;;;;;16.40;7.93;;;15.30;99.90;;;;;;5064749;28;20059;-76
2021/08/30 01:50:59;;;;;;;15.55;7.38;;;15.30;99.90;;;;;;5064967;28;20029;-75
2021/08/30 01:53:26;;;;;;;16.77;7.97;;;15.20;99.90;;;;;;5064810;28;20021;-75
2021/08/30 01:55:57;;;;;;;16.30;8.90;;;15.30;99.90;;;;;;5080442;28;20028;-75
2021/08/30 02:03:31;;;;;;;16.65;8.45;;;15.20;99.90;;;;;;5065034;28;20595;-73
2021/08/30 02:06:02;;;;;;;17.67;7.90;;;15.20;99.90;;;;;;5063589;28;20033;-74
2021/08/30 02:08:30;;;;;;;21.58;8.80;;;15.20;99.90;;;;;;5064771;28;20116;-74
2021/08/30 02:10:58;;;;;;;14.48;7.90;;;15.20;99.90;;;;;;5064696;28;20032;-77
2021/08/30 02:13:27;;;;;;;16.65;7.78;;;15.20;99.90;;;;;;5082121;28;20512;-75
2021/08/30 02:15:54;;;;;;;20.73;8.70;;;15.10;99.90;;;;;;5068749;28;20087;-75
2021/08/30 02:19:05;;;;;;;15.15;7.70;;;15.20;99.90;;;;;;5068688;28;20045;-74
2021/08/30 02:21:41;;;;;;;13.98;7.22;;;15.20;99.90;;;;;;5029851;28;20033;-78
2021/08/30 02:24:29;;;;;;;18.45;8.35;;;15.20;99.90;;;;;;5046512;28;20041;-77
2021/08/30 02:27:04;;;;;;;17.75;7.65;;;15.20;99.90;;;;;;5061585;28;20053;-76
2021/08/30 02:29:42;;;;;;;17.42;7.88;;;15.30;99.90;;;;;;5068689;28;20115;-75
2021/08/30 02:32:09;;;;;;;16.92;7.43;;;15.20;99.90;;;;;;5068621;28;20033;-77
2021/08/30 02:34:37;;;;;;;15.18;7.18;;;15.40;99.90;;;;;;5067077;28;20025;-76
2021/08/30 02:37:04;;;;;;;18.20;8.63;;;15.20;99.90;;;;;;5083765;28;20032;-77
2021/08/30 02:39:34;;;;;;;12.90;7.30;;;15.30;99.90;;;;;;5083516;28;20035;-75
2021/08/30 02:42:02;;;;;;;20.50;8.48;;;15.30;99.90;;;;;;5068441;28;20048;-75
2021/08/30 02:44:28;;;;;;;22.05;7.80;;;15.40;99.90;;;;;;5068253;28;20058;-75
2021/08/30 02:46:55;;;;;;;21.83;8.57;;;15.40;99.90;;;;;;5068116;28;20099;-76
2021/08/30 02:49:21;;;;;;;16.27;7.22;;;15.40;99.90;;;;;;5083686;28;20044;-73
2021/08/30 02:51:47;;;;;;;21.45;8.30;;;15.30;99.90;;;;;;5068250;28;20475;-75
2021/08/30 02:54:13;;;;;;;16.92;7.75;;;15.40;99.90;;;;;;5083623;28;20029;-75
2021/08/30 02:56:42;;;;;;;16.77;8.35;;;15.40;99.90;;;;;;5083408;28;20110;-75
2021/08/30 02:59:10;;;;;;;14.77;8.73;;;15.40;99.90;;;;;;5067947;28;20041;-75
2021/08/30 03:01:36;;;;;;;18.65;8.13;;;15.40;99.90;;;;;;5067842;28;20029;-75
2021/08/30 03:04:02;;;;;;;16.67;7.70;;;15.40;99.90;;;;;;5067710;28;20378;-73
2021/08/30 03:06:32;;;;;;;14.32;6.97;;;15.40;99.90;;;;;;5067838;28;20028;-75
2021/08/30 03:08:58;;;;;;;14.75;7.15;;;15.40;99.90;;;;;;5083150;28;20052;-75
2021/08/30 03:11:26;;;;;;;16.77;7.50;;;15.40;99.90;;;;;;5068044;28;20029;-75
2021/08/30 03:13:55;;;;;;;18.50;7.68;;;15.40;99.90;;;;;;5083316;28;20092;-75
2021/08/30 03:16:24;;;;;;;14.85;7.80;;;15.40;99.90;;;;;;5083050;28;20056;-76
2021/08/30 03:18:51;;;;;;;17.75;8.70;;;15.40;99.90;;;;;;5066127;28;20060;-76
2021/08/30 03:21:18;;;;;;;19.05;8.52;;;15.50;99.90;;;;;;5067659;28;20123;-77
2021/08/30 03:23:44;;;;;;;16.95;7.60;;;15.40;99.90;;;;;;5082506;28;20065;-76
2021/08/30 03:26:11;;;;;;;14.48;7.70;;;15.40;99.90;;;;;;5067403;28;20021;-77
2021/08/30 03:28:37;;;;;;;15.68;9.05;;;15.30;99.90;;;;;;5067486;28;20059;-79
2021/08/30 03:31:04;;;;;;;16.65;9.05;;;15.40;99.90;;;;;;5082764;28;20056;-76
2021/08/30 03:33:31;;;;;;;16.17;8.25;;;15.30;99.90;;;;;;5067236;28;20039;-74
2021/08/30 03:35:57;;;;;;;31.30;8.18;;;15.30;99.90;;;;;;5082861;28;20091;-75
2021/08/30 03:38:24;;;;;;;20.83;8.32;;;15.40;99.90;;;;;;5067360;28;20029;-75
2021/08/30 03:40:51;;;;;;;20.15;9.13;;;15.30;99.90;;;;;;5067418;28;20036;-78
2021/08/30 03:43:18;;;;;;;18.88;8.88;;;15.30;99.90;;;;;;5067548;28;20033;-78
2021/08/30 03:45:47;;;;;;;21.23;9.18;;;15.40;99.90;;;;;;5065831;28;20033;-75
2021/08/30 03:48:13;;;;;;;16.67;8.40;;;15.40;99.90;;;;;;5067207;28;20077;-77
2021/08/30 03:50:40;;;;;;;14.13;8.25;;;15.30;99.90;;;;;;5082376;28;20040;-76
2021/08/30 03:53:08;;;;;;;17.15;8.65;;;15.30;99.90;;;;;;5066760;28;20029;-76
2021/08/30 03:55:33;;;;;;;15.35;7.95;;;15.30;99.90;;;;;;5066986;28;20032;-76
2021/08/30 03:58:01;;;;;;;16.50;8.70;;;15.10;99.90;;;;;;5066741;28;20029;-77
2021/08/30 04:00:27;;;;;;;17.95;8.50;;;15.20;99.90;;;;;;5066859;28;20044;-77
2021/08/30 04:02:56;;;;;;;18.80;8.40;;;15.10;99.90;;;;;;5066886;28;20032;-75
2021/08/30 04:05:25;;;;;;;17.10;8.25;;;15.00;99.90;;;;;;5067054;28;20100;-77
2021/08/30 04:07:52;;;;;;;17.67;8.68;;;15.10;99.90;;;;;;5066654;28;20033;-76
2021/08/30 04:10:19;;;;;;;23.83;8.68;;;15.10;99.90;;;;;;5066887;28;20025;-75
2021/08/30 04:12:45;;;;;;;17.77;8.45;;;15.10;99.90;;;;;;5066738;28;20021;-77
2021/08/30 04:15:11;;;;;;;19.88;8.40;;;15.10;99.90;;;;;;5066465;28;20076;-76
2021/08/30 04:17:36;;;;;;;20.75;7.55;;;15.00;99.90;;;;;;5081391;28;20055;-76
2021/08/30 04:20:02;;;;;;;16.10;8.45;;;15.00;99.90;;;;;;5081710;28;20025;-75
2021/08/30 04:22:28;;;;;;;19.42;8.85;;;15.00;99.90;;;;;;5066115;28;20025;-78
2021/08/30 04:24:54;;;;;;;17.38;8.27;;;15.00;99.90;;;;;;5065036;28;20036;-76
2021/08/30 04:27:20;;;;;;;16.92;8.63;;;15.00;99.90;;;;;;5066260;28;20036;-78
2021/08/30 04:29:45;;;;;;;18.45;9.00;;;15.00;99.90;;;;;;5065187;28;20060;-77
2021/08/30 04:32:12;;;;;;;17.70;8.52;;;15.00;99.90;;;;;;5081516;28;20059;-76
2021/08/30 04:34:38;;;;;;;20.25;9.27;;;15.10;99.90;;;;;;5065703;28;20504;-75
2021/08/30 04:37:04;;;;;;;22.58;8.88;;;15.10;99.90;;;;;;5080740;28;20036;-75
2021/08/30 04:39:30;;;;;;;17.95;8.63;;;15.10;99.90;;;;;;5065110;28;20040;-76
2021/08/30 04:41:56;;;;;;;21.00;8.80;;;15.10;99.90;;;;;;5065897;28;20040;-74
2021/08/30 04:44:22;;;;;;;18.25;8.18;;;15.20;99.90;;;;;;5066233;28;20459;-77
2021/08/30 04:46:47;;;;;;;19.67;8.73;;;15.00;99.90;;;;;;5064633;28;20033;-77
2021/08/30 04:49:13;;;;;;;16.20;8.38;;;15.20;99.90;;;;;;5064523;28;20036;-74
2021/08/30 04:51:38;;;;;;;16.60;7.90;;;15.10;99.90;;;;;;5063706;28;20044;-75
2021/08/30 04:54:05;;;;;;;19.30;7.82;;;15.00;99.90;;;;;;5065229;28;20048;-75
2021/08/30 04:56:31;;;;;;;19.92;8.30;;;15.10;99.90;;;;;;5065215;28;20028;-77
2021/08/30 04:58:56;;;;;;;20.27;9.45;;;15.10;99.90;;;;;;5065871;28;20037;-77
2021/08/30 05:01:24;;;;;;;16.88;7.80;;;15.10;99.90;;;;;;5079023;28;20044;-75
2021/08/30 05:03:51;;;;;;;17.05;8.63;;;15.00;99.90;;;;;;5068925;28;20105;-76
2021/08/30 05:06:16;;;;;;;14.75;8.45;;;15.10;99.90;;;;;;5062869;28;20151;-78
2021/08/30 05:08:43;;;;;;;18.50;8.57;;;15.20;99.90;;;;;;5062549;28;20029;-77
2021/08/30 05:11:08;;;;;;;16.92;7.78;;;15.20;99.90;;;;;;5064123;28;20028;-76
2021/08/30 05:13:34;;;;;;;19.13;8.63;;;15.20;99.90;;;;;;5065769;28;20094;-78
2021/08/30 05:15:59;;;;;;;19.25;7.88;;;15.20;99.90;;;;;;5065127;28;20504;-75
2021/08/30 05:18:25;;;;;;;19.65;7.72;;;15.20;99.90;;;;;;5070622;28;20049;-76
2021/08/30 05:20:53;;;;;;;18.05;9.20;;;15.20;99.90;;;;;;5065043;28;20024;-78
2021/08/30 05:23:19;;;;;;;22.83;9.40;;;15.30;99.90;;;;;;5062084;28;20047;-76
2021/08/30 05:25:44;;;;;;;16.25;7.40;;;15.30;99.90;;;;;;5065448;28;20068;-79
2021/08/30 05:28:10;;;;;;;24.25;8.23;;;15.40;99.90;;;;;;5058200;28;20477;-76
2021/08/30 05:30:36;;;;;;;26.90;8.85;;;15.40;99.90;;;;;;5063200;28;20145;-77
2021/08/30 05:33:04;;;;;;;18.00;9.02;;;15.40;99.90;;;;;;5058930;28;20422;-78
2021/08/30 05:35:30;;;;;;;16.10;8.93;;;15.50;99.90;;;;;;5052795;28;20031;-77
2021/08/30 05:37:55;;;;;;;14.40;7.07;;;15.50;99.90;;;;;;5050013;28;20025;-78
2021/08/30 05:40:21;;;;;;;18.55;7.57;;;15.40;99.90;;;;;;5052266;28;20092;-78
2021/08/30 05:42:47;;;;;;;15.43;7.50;;;15.60;99.90;;;;;;5051928;28;20052;-80
2021/08/30 05:45:12;;;;;;;24.08;8.43;;;15.60;99.90;;;;;;5063072;28;20036;-76
2021/08/30 05:47:38;;;;;;;16.50;8.05;;;15.60;99.90;;;;;;5063602;28;20041;-79
2021/08/30 05:50:04;;;;;;;15.30;7.03;;;15.70;99.90;;;;;;5050329;28;20030;-75
2021/08/30 05:52:30;;;;;;;13.18;6.32;;;15.70;99.90;;;;;;5044547;28;20041;-78
2021/08/30 05:54:56;;;;;;;20.23;7.90;;;15.80;99.90;;;;;;5044957;28;20026;-78
2021/08/30 05:57:22;;;;;;;19.38;7.28;;;15.90;99.90;;;;;;5060796;28;20052;-78
2021/08/30 05:59:47;;;;;;;16.77;7.72;;;15.90;99.90;;;;;;5053333;28;20146;-77
2021/08/30 06:02:13;;;;;;;12.52;6.50;;;15.90;99.90;;;;;;5071155;28;20040;-79
2021/08/30 06:04:39;;;;;;;14.48;7.50;;;16.00;99.90;;;;;;5063245;28;20029;-79
2021/08/30 06:07:04;;;;;;;23.73;7.35;;;16.00;99.90;;;;;;5058826;28;22473;-79
2021/08/30 06:09:30;;;;;;;22.50;8.20;;;16.00;99.90;;;;;;5053171;28;20409;-78
2021/08/30 06:11:56;;;;;;;21.40;8.70;;;16.10;99.90;;;;;;5049229;28;20048;-77
2021/08/30 06:14:22;;;;;;;20.70;8.63;;;16.10;99.90;;;;;;5043006;28;20052;-76
2021/08/30 06:16:48;;;;;;;19.60;6.75;;;16.10;99.90;;;;;;5046900;28;20029;-77
2021/08/30 06:19:14;;;;;;;14.95;6.72;;;16.20;99.90;;;;;;5043724;28;20057;-77
2021/08/30 06:21:39;;;;;;;14.45;6.40;;;16.20;99.90;;;;;;5059828;28;20028;-78
2021/08/30 06:24:06;;;;;;;14.93;6.45;;;16.30;99.90;;;;;;5043164;28;20022;-79
2021/08/30 06:26:33;;;;;;;14.00;7.25;;;16.20;99.90;;;;;;5045378;28;20033;-79
2021/08/30 06:28:59;;;;;;;12.73;6.55;;;16.30;99.90;;;;;;5062426;28;20041;-79
2021/08/30 06:31:25;;;;;;;15.30;6.75;;;16.30;99.90;;;;;;5057017;28;20378;-78
2021/08/30 06:33:51;;;;;;;17.65;6.93;;;16.30;99.90;;;;;;5046134;28;20024;-77
2021/08/30 06:36:16;;;;;;;14.70;7.13;;;16.30;99.90;;;;;;5064743;28;20029;-77
2021/08/30 06:38:42;;;;;;;13.38;6.72;;;16.50;99.90;;;;;;5064401;28;20033;-79
2021/08/30 06:41:07;;;;;;;13.32;5.80;;;16.40;99.90;;;;;;5063150;28;20025;-76
2021/08/30 06:43:33;;;;;;;10.75;5.53;;;16.50;99.90;;;;;;5064376;28;20036;-78
2021/08/30 06:45:59;;;;;;;22.42;6.88;;;16.60;99.90;;;;;;5062046;28;20050;-77
2021/08/30 06:48:25;;;;;;;17.48;6.50;;;16.60;99.90;;;;;;5063080;28;20067;-76
2021/08/30 06:50:50;;;;;;;12.35;6.60;;;16.60;99.90;;;;;;5063788;28;20025;-78
2021/08/30 06:53:16;;;;;;;13.43;6.72;;;16.70;99.90;;;;;;5064033;28;20044;-76
2021/08/30 06:55:42;;;;;;;13.63;6.07;;;16.70;99.90;;;;;;5064373;28;20099;-78
2021/08/30 06:58:07;;;;;;;16.98;6.78;;;16.70;99.90;;;;;;5064182;28;20036;-78
2021/08/30 07:00:33;;;;;;;13.70;6.18;;;16.70;99.90;;;;;;5083167;28;20009;-78
2021/08/30 07:02:58;;;;;;;14.50;6.50;;;16.80;99.90;;;;;;5083348;28;20025;-77
2021/08/30 07:05:24;;;;;;;12.30;6.25;;;16.80;99.90;;;;;;5067989;28;20021;-77
2021/08/30 07:07:50;;;;;;;13.23;6.20;;;16.90;99.90;;;;;;5045775;28;20041;-79
2021/08/30 07:10:16;;;;;;;12.85;5.95;;;16.90;99.90;;;;;;5046294;28;20022;-79
2021/08/30 07:12:41;;;;;;;8.85;5.25;;;16.90;99.90;;;;;;5045995;28;20478;-78
2021/08/30 07:15:07;;;;;;;14.95;6.13;;;16.90;99.90;;;;;;5048348;28;20037;-77
2021/08/30 07:17:33;;;;;;;9.93;4.72;;;16.90;99.90;;;;;;5066457;28;20060;-76
2021/08/30 07:20:00;;;;;;;9.57;5.45;;;17.00;99.90;;;;;;5065227;28;20048;-78
2021/08/30 07:22:25;;;;;;;9.48;5.22;;;17.00;99.90;;;;;;5064861;28;20113;-75
2021/08/30 07:24:51;;;;;;;11.93;6.07;;;17.00;99.90;;;;;;5066451;28;20132;-77
2021/08/30 07:27:16;;;;;;;13.30;5.55;;;17.10;99.90;;;;;;5067425;28;20036;-77
2021/08/30 07:29:42;;;;;;;11.40;5.45;;;17.10;99.90;;;;;;5067618;28;20465;-77
2021/08/30 07:32:08;;;;;;;10.60;6.15;;;17.20;99.90;;;;;;5064742;28;20037;-76
2021/08/30 07:34:34;;;;;;;11.60;5.38;;;17.20;99.90;;;;;;5067567;28;20021;-78
2021/08/30 07:37:00;;;;;;;14.88;5.35;;;17.30;99.90;;;;;;5067593;28;20090;-79
2021/08/30 07:39:26;;;;;;;9.13;5.43;;;17.30;99.90;;;;;;5066244;28;20037;-78
2021/08/30 07:41:51;;;;;;;13.23;5.50;;;17.30;99.90;;;;;;5061130;28;20052;-75
2021/08/30 07:44:17;;;;;;;11.65;5.75;;;17.30;99.90;;;;;;5067216;28;20025;-76
2021/08/30 07:46:43;;;;;;;12.70;5.63;;;17.30;99.90;;;;;;5065938;28;20397;-77
2021/08/30 07:49:10;;;;;;;16.13;5.40;;;17.40;99.90;;;;;;5067077;28;20491;-76
2021/08/30 07:51:36;;;;;;;11.45;4.93;;;17.40;99.90;;;;;;5067292;28;20021;-77
2021/08/30 07:54:02;;;;;;;9.15;4.65;;;17.50;99.90;;;;;;5082107;28;20029;-77
2021/08/30 07:56:28;;;;;;;12.45;6.15;;;17.60;99.90;;;;;;5066944;28;20095;-78
2021/08/30 07:58:54;;;;;;;12.18;5.45;;;17.60;99.90;;;;;;5082302;28;20037;-75
2021/08/30 08:01:19;;;;;;;10.13;4.85;;;17.70;99.90;;;;;;5081403;28;20079;-78
2021/08/30 08:03:46;;;;;;;9.93;5.10;;;17.70;99.90;;;;;;5065187;28;20036;-76
2021/08/30 08:06:12;;;;;;;10.18;5.30;;;17.70;99.90;;;;;;5066789;28;20029;-75
2021/08/30 08:08:37;;;;;;;9.02;4.80;;;17.80;99.90;;;;;;5066562;28;20211;-77
2021/08/30 08:11:03;;;;;;;14.82;4.90;;;17.80;99.90;;;;;;5061898;28;20029;-76
2021/08/30 08:13:29;;;;;;;8.43;4.93;;;17.90;99.90;;;;;;5066074;28;20440;-78
2021/08/30 08:15:56;;;;;;;10.85;4.95;;;17.90;99.90;;;;;;5065344;28;20028;-77
2021/08/30 08:18:21;;;;;;;9.60;5.13;;;18.00;99.90;;;;;;5064410;28;20049;-76
2021/08/30 08:20:52;;;;;;;11.73;4.95;;;18.10;99.90;;;;;;5073415;28;20029;-78
2021/08/30 08:23:17;;;;;;;9.30;4.88;;;18.10;99.90;;;;;;5065951;28;20108;-76
2021/08/30 08:25:43;;;;;;;10.00;4.70;;;18.20;99.90;;;;;;5066202;28;20029;-76
2021/08/30 08:28:08;;;;;;;12.52;5.20;;;18.30;99.90;;;;;;5073757;28;20060;-75
2021/08/30 08:30:34;;;;;;;11.02;4.40;;;18.40;99.90;;;;;;5063043;28;20155;-77
2021/08/30 08:33:00;;;;;;;8.30;4.82;;;18.40;99.90;;;;;;5065497;28;20025;-79
2021/08/30 08:35:26;;;;;;;10.15;4.72;;;18.50;99.90;;;;;;5065334;28;20035;-80
2021/08/30 08:37:51;;;;;;;11.15;4.38;;;18.50;99.90;;;;;;5061360;28;20033;-78
2021/08/30 08:40:17;;;;;;;10.40;4.18;;;18.70;99.90;;;;;;5054586;28;20033;-77
2021/08/30 08:42:44;;;;;;;8.90;4.68;;;18.80;99.90;;;;;;5044577;28;20013;-77
2021/08/30 08:45:13;;;;;;;12.05;4.45;;;18.90;99.90;;;;;;5044496;28;20497;-79
2021/08/30 08:47:40;;;;;;;10.65;4.50;;;18.90;99.90;;;;;;5045856;28;20040;-78
2021/08/30 08:50:09;;;;;;;10.13;4.05;;;18.90;99.90;;;;;;5044480;28;20033;-79
2021/08/30 08:52:35;;;;;;;9.82;4.53;;;18.90;99.90;;;;;;5044220;28;20057;-78
2021/08/30 08:55:02;;;;;;;8.88;4.05;;;18.90;99.90;;;;;;5044290;28;20032;-77
2021/08/30 08:57:28;;;;;;;27.60;5.40;;;19.00;99.90;;;;;;5063230;28;20029;-77
2021/08/30 08:59:58;;;;;;;10.35;3.92;;;19.00;99.90;;;;;;5080911;28;20048;-77
2021/08/30 09:02:33;;;;;;;9.50;4.57;;;19.10;99.90;;;;;;5081152;28;20033;-76
2021/08/30 09:05:00;;;;;;;5.03;3.65;;;19.20;99.90;;;;;;5065525;28;20025;-79
2021/08/30 09:07:40;;;;;;;7.95;4.07;;;19.30;99.90;;;;;;5064285;28;20029;-77
2021/08/30 09:10:11;;;;;;;9.55;4.20;;;19.40;99.90;;;;;;5080773;28;20091;-79
2021/08/30 09:12:37;;;;;;;8.05;3.85;;;19.50;99.90;;;;;;5065366;28;20025;-80
2021/08/30 09:15:16;;;;;;;10.57;3.85;;;19.60;99.90;;;;;;5064207;28;20060;-76
2021/08/30 09:17:50;;;;;;;8.38;3.47;;;19.70;99.90;;;;;;5079846;28;20117;-78
2021/08/30 09:20:19;;;;;;;6.18;3.38;;;19.80;99.90;;;;;;5080474;28;20091;-78
2021/08/30 09:22:45;;;;;;;7.72;3.50;;;19.90;99.90;;;;;;5074177;28;20064;-80
2021/08/30 09:25:13;;;;;;;6.28;3.53;;;19.90;99.90;;;;;;5045886;28;20037;-76
2021/08/30 09:27:42;;;;;;;5.38;3.50;;;19.90;99.90;;;;;;5075881;28;20057;-78
2021/08/30 09:30:13;;;;;;;8.23;3.95;;;19.90;99.90;;;;;;5059109;28;20065;-78
2021/08/30 09:32:45;;;;;;;6.40;3.38;;;19.90;99.90;;;;;;5080559;28;20037;-78
2021/08/30 09:35:10;;;;;;;8.45;4.18;;;19.80;99.90;;;;;;5064545;28;20037;-76
2021/08/30 09:37:39;;;;;;;8.10;3.55;;;19.80;99.90;;;;;;5060915;28;20043;-78
2021/08/30 09:40:15;;;;;;;9.80;3.83;;;19.80;99.90;;;;;;5053200;28;20039;-76
2021/08/30 09:42:50;;;;;;;6.80;3.70;;;19.80;99.90;;;;;;5064713;28;20033;-77
2021/08/30 09:45:21;;;;;;;5.60;3.15;;;19.80;99.90;;;;;;5064466;28;20020;-78
2021/08/30 09:47:55;;;;;;;8.10;3.33;;;19.80;99.90;;;;;;5064939;28;20063;-77
2021/08/30 09:50:32;;;;;;;8.43;4.10;;;19.80;99.90;;;;;;5077473;28;20028;-77
2021/08/30 09:52:59;;;;;;;7.60;3.63;;;19.80;99.90;;;;;;5062736;28;20246;-80
2021/08/30 09:55:25;;;;;;;6.05;3.45;;;19.80;99.90;;;;;;5063370;28;20060;-76
2021/08/30 09:57:52;;;;;;;5.38;3.15;;;19.90;99.90;;;;;;5064062;28;20032;-77
2021/08/30 10:00:20;;;;;;;8.68;4.18;;;19.90;99.90;;;;;;5064263;28;20031;-78
2021/08/30 10:02:50;;;;;;;6.97;3.42;;;19.90;99.90;;;;;;5062766;28;20025;-79
2021/08/30 10:05:16;;;;;;;8.25;3.40;;;19.90;99.90;;;;;;5064684;28;20029;-77
2021/08/30 10:07:45;;;;;;;6.93;3.75;;;19.80;99.90;;;;;;5063238;28;20059;-76
2021/08/30 10:10:13;;;;;;;7.47;4.10;;;19.70;99.90;;;;;;5064425;28;20049;-78
2021/08/30 10:12:39;;;;;;;11.93;4.40;;;19.70;99.90;;;;;;5064330;28;20035;-78
2021/08/30 10:15:07;;;;;;;7.40;3.22;;;19.60;99.90;;;;;;5064720;28;20032;-77
2021/08/30 10:17:33;;;;;;;8.20;3.67;;;19.70;99.90;;;;;;5063476;28;20053;-78
2021/08/30 10:20:01;;;;;;;6.05;3.53;;;19.80;99.90;;;;;;5080657;28;20092;-77
2021/08/30 10:22:27;;;;;;;6.60;3.40;;;19.90;99.90;;;;;;5065045;28;20017;-78
2021/08/30 10:24:53;;;;;;;6.28;3.28;;;19.80;99.90;;;;;;5065527;28;20040;-77
2021/08/30 10:27:34;;;;;;;7.95;4.10;;;20.00;99.90;;;;;;5080341;28;20064;-77
2021/08/30 10:30:09;;;;;;;5.75;3.50;;;20.10;99.90;;;;;;5080406;28;20044;-79
2021/08/30 10:32:43;;;;;;;5.57;3.38;;;20.30;99.90;;;;;;5080042;28;20140;-78
2021/08/30 10:35:18;;;;;;;11.15;4.00;;;20.60;99.90;;;;;;5068312;28;20033;-80
2021/08/30 10:37:59;;;;;;;5.63;3.08;;;20.70;99.90;;;;;;5068964;28;20044;-78
2021/08/30 10:40:28;;;;;;;6.10;3.35;;;20.70;99.90;;;;;;5067691;28;20128;-80
2021/08/30 10:43:08;;;;;;;5.47;3.47;;;20.80;99.90;;;;;;5067639;28;20084;-78
2021/08/30 10:45:39;;;;;;;5.20;2.65;;;20.80;99.90;;;;;;5068023;28;20032;-76
2021/08/30 10:48:09;;;;;;;6.63;3.22;;;20.80;99.90;;;;;;5046736;28;20052;-78
2021/08/30 10:50:40;;;;;;;6.88;3.17;;;20.80;99.90;;;;;;5063944;28;20030;-77
2021/08/30 10:53:14;;;;;;;6.22;2.72;;;21.00;99.90;;;;;;5048241;28;20032;-78
2021/08/30 10:55:43;;;;;;;7.18;3.45;;;21.20;99.90;;;;;;5048257;28;20030;-79
2021/08/30 10:58:17;;;;;;;9.18;3.58;;;21.20;99.90;;;;;;5048265;28;20041;-77
2021/08/30 11:00:44;;;;;;;5.32;3.05;;;21.10;99.90;;;;;;5048343;28;20021;-77
2021/08/30 11:03:10;;;;;;;7.10;3.58;;;21.10;99.90;;;;;;5048111;28;20087;-79
2021/08/30 11:05:36;;;;;;;8.80;3.38;;;21.00;99.90;;;;;;5047982;28;20034;-75
2021/08/30 11:08:03;;;;;;;5.55;3.45;;;20.90;99.90;;;;;;5048051;28;20048;-77
2021/08/30 11:10:29;;;;;;;6.50;3.08;;;20.80;99.90;;;;;;5048187;28;20029;-77
2021/08/30 11:12:56;;;;;;;5.45;3.05;;;20.90;99.90;;;;;;5063552;28;20026;-78
2021/08/30 11:15:22;;;;;;;5.50;3.03;;;21.00;99.90;;;;;;5047932;28;20021;-78
2021/08/30 11:17:47;;;;;;;14.10;3.67;;;21.20;99.90;;;;;;5063197;28;20096;-79
2021/08/30 11:20:17;;;;;;;7.38;3.17;;;21.40;99.90;;;;;;5047892;28;20029;-78
2021/08/30 11:22:51;;;;;;;5.47;2.95;;;21.30;99.90;;;;;;5062996;28;20040;-79
2021/08/30 11:25:17;;;;;;;4.28;2.63;;;21.10;99.90;;;;;;5063044;28;20026;-78
2021/08/30 11:27:43;;;;;;;5.35;3.03;;;20.80;99.90;;;;;;5062748;28;20056;-77
2021/08/30 11:30:12;;;;;;;5.43;3.08;;;20.60;99.90;;;;;;5047832;28;20029;-77
2021/08/30 11:32:39;;;;;;;4.05;2.47;;;20.40;99.90;;;;;;5046163;28;20021;-78
2021/08/30 11:35:07;;;;;;;8.90;3.00;;;20.30;99.90;;;;;;5047300;28;20027;-76
2021/08/30 11:37:36;;;;;;;16.17;2.85;;;20.30;99.90;;;;;;5047322;28;20022;-75
2021/08/30 11:40:06;;;;;;;4.38;2.63;;;20.20;99.90;;;;;;5062470;28;20034;-77
2021/08/30 11:42:33;;;;;;;4.60;2.45;;;20.30;99.90;;;;;;5049459;28;20034;-78
2021/08/30 11:45:04;;;;;;;9.32;3.90;;;20.30;99.90;;;;;;5066792;28;20191;-78
2021/08/30 11:47:30;;;;;;;6.13;3.05;;;20.30;99.90;;;;;;5065753;28;20037;-78
2021/08/30 11:49:58;;;;;;;4.47;2.50;;;20.70;99.90;;;;;;5081880;28;20465;-78
2021/08/30 11:52:29;;;;;;;5.00;2.58;;;21.10;99.90;;;;;;5066845;28;20026;-78
2021/08/30 11:55:05;;;;;;;11.82;3.05;;;21.30;99.90;;;;;;5082572;28;20029;-76
2021/08/30 11:57:41;;;;;;;4.63;2.28;;;21.40;99.90;;;;;;5065586;28;20041;-78
2021/08/30 12:00:10;;;;;;;4.97;2.33;;;21.30;99.90;;;;;;5082244;28;20033;-78
2021/08/30 12:02:36;;;;;;;4.18;2.67;;;21.10;99.90;;;;;;5067224;28;20080;-78
2021/08/30 12:05:04;;;;;;;4.75;2.60;;;20.90;99.90;;;;;;5082280;28;20031;-81
2021/08/30 12:07:33;;;;;;;4.97;2.78;;;20.70;99.90;;;;;;5066564;28;20051;-78
2021/08/30 12:10:00;;;;;;;11.43;3.15;;;20.70;99.90;;;;;;5066722;28;20032;-79
2021/08/30 12:12:34;;;;;;;6.60;2.65;;;20.80;99.90;;;;;;5065531;28;20397;-76
2021/08/30 12:15:15;;;;;;;5.55;2.88;;;21.10;99.90;;;;;;5081932;28;20029;-77
2021/08/30 12:17:49;;;;;;;4.82;2.75;;;21.30;99.90;;;;;;5081862;28;20155;-75
2021/08/30 12:20:18;;;;;;;;;;;21.30;99.90;;;;;;5082585;28;20036;-79
2021/08/30 12:22:50;;;;;;;5.57;2.50;;;21.30;99.90;;;;;;5066399;28;19904;-77
2021/08/30 12:25:19;;;;;;;3.95;2.17;;;21.10;99.90;;;;;;5064836;28;20035;-77
2021/08/30 12:27:46;;;;;;;4.63;2.60;;;20.90;99.90;;;;;;5069169;28;20036;-75
2021/08/30 12:30:16;;;;;;;4.88;2.58;;;20.70;99.90;;;;;;5086406;28;20025;-76
2021/08/30 12:32:58;;;;;;;5.30;2.78;;;20.60;99.90;;;;;;5083185;28;20031;-75
2021/08/30 12:35:39;;;;;;;6.85;2.60;;;20.80;99.90;;;;;;5083832;28;20040;-76
2021/08/30 12:38:13;;;;;;;5.55;3.13;;;21.00;99.90;;;;;;5082981;28;20025;-75
2021/08/30 12:40:41;;;;;;;7.78;2.85;;;21.30;99.90;;;;;;5066520;28;20060;-75
2021/08/30 12:43:07;;;;;;;7.15;3.00;;;21.60;99.90;;;;;;5067568;28;20478;-77
2021/08/30 12:45:33;;;;;;;4.97;2.55;;;21.70;99.90;;;;;;5083754;28;20052;-79
2021/08/30 12:47:59;;;;;;;5.03;2.55;;;22.00;99.90;;;;;;5083167;28;20099;-79
2021/08/30 12:50:25;;;;;;;5.57;2.55;;;22.30;99.90;;;;;;5067468;28;20052;-80